sensor_id;sensor_type;location;lat;lon;timestamp;temperature;humidity
18884;DHT22;9574;47.282;9.640;2024-02-28T00:00:00;8.20;99.90
18884;DHT22;9574;47.282;9.640;2024-02-28T00:02:27;8.30;99.90
18884;DHT22;9574;47.282;9.640;2024-02-28T00:04:55;8.30;99.90
18884;DHT22;9574;47.282;9.640;2024-02-28T00:07:24;8.40;99.90
18884;DHT22;9574;47.282;9.640;2024-02-28T00:09:51;8.30;99.90
18884;DHT22;9574;47.282;9.640;2024-02-28T00:12:23;8.30;99.90
18884;DHT22;9574;47.282;9.640;2024-02-28T00:14:52;8.30;99.90
18884;DHT22;9574;47.282;9.640;2024-02-28T00:17:19;8.30;99.90
18884;DHT22;9574;47.282;9.640;2024-02-28T00:19:46;8.30;99.90
18884;DHT22;9574;47.282;9.640;2024-02-28T00:22:13;8.30;99.90
18884;DHT22;9574;47.282;9.640;2024-02-28T00:24:41;8.40;99.90
18884;DHT22;9574;47.282;9.640;2024-02-28T00:27:08;8.40;99.90
18884;DHT22;9574;47.282;9.640;2024-02-28T00:29:35;8.30;99.90
18884;DHT22;9574;47.282;9.640;2024-02-28T00:32:04;8.30;99.90
18884;DHT22;9574;47.282;9.640;2024-02-28T00:34:31;8.40;99.90
18884;DHT22;9574;47.282;9.640;2024-02-28T00:36:58;8.60;99.90
18884;DHT22;9574;47.282;9.640;2024-02-28T00:39:25;8.80;99.90
18884;DHT22;9574;47.282;9.640;2024-02-28T00:41:51;8.90;99.90
18884;DHT22;9574;47.282;9.640;2024-02-28T00:44:18;9.00;99.90
18884;DHT22;9574;47.282;9.640;2024-02-28T00:46:45;9.00;99.90
18884;DHT22;9574;47.282;9.640;2024-02-28T00:49:14;9.00;99.90
18884;DHT22;9574;47.282;9.640;2024-02-28T00:51:41;8.90;99.90
18884;DHT22;9574;47.282;9.640;2024-02-28T00:54:07;8.90;99.90
18884;DHT22;9574;47.282;9.640;2024-02-28T00:56:34;9.00;99.90
18884;DHT22;9574;47.282;9.640;2024-02-28T00:59:01;9.00;99.90
18884;DHT22;9574;47.282;9.640;2024-02-28T01:01:28;8.70;99.90
18884;DHT22;9574;47.282;9.640;2024-02-28T01:03:55;8.50;99.90
18884;DHT22;9574;47.282;9.640;2024-02-28T01:06:23;8.30;99.90
18884;DHT22;9574;47.282;9.640;2024-02-28T01:08:50;8.20;99.90
18884;DHT22;9574;47.282;9.640;2024-02-28T01:11:17;8.20;99.90
18884;DHT22;9574;47.282;9.640;2024-02-28T01:13:44;8.20;99.90
18884;DHT22;9574;47.282;9.640;2024-02-28T01:16:11;8.20;99.90
18884;DHT22;9574;47.282;9.640;2024-02-28T01:18:38;8.10;99.90
18884;DHT22;9574;47.282;9.640;2024-02-28T01:21:05;8.10;99.90
18884;DHT22;9574;47.282;9.640;2024-02-28T01:23:33;8.10;99.90
18884;DHT22;9574;47.282;9.640;2024-02-28T01:26:00;8.10;99.90
18884;DHT22;9574;47.282;9.640;2024-02-28T01:28:28;8.30;99.90
18884;DHT22;9574;47.282;9.640;2024-02-28T01:30:55;8.40;99.90
18884;DHT22;9574;47.282;9.640;2024-02-28T01:33:22;8.40;99.90
18884;DHT22;9574;47.282;9.640;2024-02-28T01:35:49;8.30;99.90
18884;DHT22;9574;47.282;9.640;2024-02-28T01:38:16;8.30;99.90
18884;DHT22;9574;47.282;9.640;2024-02-28T01:40:46;8.30;99.90
18884;DHT22;9574;47.282;9.640;2024-02-28T01:43:13;8.30;99.90
18884;DHT22;9574;47.282;9.640;2024-02-28T01:45:40;8.30;99.90
18884;DHT22;9574;47.282;9.640;2024-02-28T01:48:09;8.30;99.90
18884;DHT22;9574;47.282;9.640;2024-02-28T01:50:37;8.30;99.90
18884;DHT22;9574;47.282;9.640;2024-02-28T01:53:06;8.30;99.90
18884;DHT22;9574;47.282;9.640;2024-02-28T01:55:34;8.30;99.90
18884;DHT22;9574;47.282;9.640;2024-02-28T01:58:03;8.30;99.90
18884;DHT22;9574;47.282;9.640;2024-02-28T02:00:32;8.20;99.90
18884;DHT22;9574;47.282;9.640;2024-02-28T02:03:00;8.20;99.90
18884;DHT22;9574;47.282;9.640;2024-02-28T02:05:27;8.20;99.90
18884;DHT22;9574;47.282;9.640;2024-02-28T02:07:54;8.30;99.90
18884;DHT22;9574;47.282;9.640;2024-02-28T02:10:22;8.20;99.90
18884;DHT22;9574;47.282;9.640;2024-02-28T02:12:49;8.20;99.90
18884;DHT22;9574;47.282;9.640;2024-02-28T02:15:18;8.10;99.90
18884;DHT22;9574;47.282;9.640;2024-02-28T02:17:44;8.00;99.90
18884;DHT22;9574;47.282;9.640;2024-02-28T02:20:14;8.00;99.90
18884;DHT22;9574;47.282;9.640;2024-02-28T02:22:42;7.90;99.90
18884;DHT22;9574;47.282;9.640;2024-02-28T02:25:09;7.80;99.90
18884;DHT22;9574;47.282;9.640;2024-02-28T02:27:36;7.70;99.90
18884;DHT22;9574;47.282;9.640;2024-02-28T02:30:04;7.60;99.90
18884;DHT22;9574;47.282;9.640;2024-02-28T02:32:30;7.60;99.90
18884;DHT22;9574;47.282;9.640;2024-02-28T02:34:57;7.60;99.90
18884;DHT22;9574;47.282;9.640;2024-02-28T02:37:24;7.60;99.90
18884;DHT22;9574;47.282;9.640;2024-02-28T02:39:53;7.60;99.90
18884;DHT22;9574;47.282;9.640;2024-02-28T02:42:20;7.60;99.90
18884;DHT22;9574;47.282;9.640;2024-02-28T02:44:47;7.60;99.90
18884;DHT22;9574;47.282;9.640;2024-02-28T02:47:14;7.70;99.90
18884;DHT22;9574;47.282;9.640;2024-02-28T02:49:40;7.80;99.90
18884;DHT22;9574;47.282;9.640;2024-02-28T02:52:07;7.80;99.90
18884;DHT22;9574;47.282;9.640;2024-02-28T02:54:34;7.80;99.90
18884;DHT22;9574;47.282;9.640;2024-02-28T02:57:03;7.80;99.90
18884;DHT22;9574;47.282;9.640;2024-02-28T02:59:30;7.80;99.90
18884;DHT22;9574;47.282;9.640;2024-02-28T03:01:57;7.80;99.90
18884;DHT22;9574;47.282;9.640;2024-02-28T03:04:24;7.80;99.90
18884;DHT22;9574;47.282;9.640;2024-02-28T03:06:51;7.80;99.90
18884;DHT22;9574;47.282;9.640;2024-02-28T03:09:18;8.00;99.90
18884;DHT22;9574;47.282;9.640;2024-02-28T03:11:45;8.20;99.90
18884;DHT22;9574;47.282;9.640;2024-02-28T03:14:13;8.30;99.90
18884;DHT22;9574;47.282;9.640;2024-02-28T03:16:41;8.50;99.90
18884;DHT22;9574;47.282;9.640;2024-02-28T03:19:09;8.50;99.90
18884;DHT22;9574;47.282;9.640;2024-02-28T03:21:36;8.40;99.90
18884;DHT22;9574;47.282;9.640;2024-02-28T03:24:03;8.30;99.90
18884;DHT22;9574;47.282;9.640;2024-02-28T03:26:30;8.30;99.90
18884;DHT22;9574;47.282;9.640;2024-02-28T03:28:57;8.50;99.90
18884;DHT22;9574;47.282;9.640;2024-02-28T03:31:26;8.50;99.90
18884;DHT22;9574;47.282;9.640;2024-02-28T03:33:53;8.40;99.90
18884;DHT22;9574;47.282;9.640;2024-02-28T03:36:20;8.40;99.90
18884;DHT22;9574;47.282;9.640;2024-02-28T03:38:46;8.60;99.90
18884;DHT22;9574;47.282;9.640;2024-02-28T03:41:13;8.70;99.90
18884;DHT22;9574;47.282;9.640;2024-02-28T03:43:40;8.70;99.90
18884;DHT22;9574;47.282;9.640;2024-02-28T03:46:07;8.80;99.90
18884;DHT22;9574;47.282;9.640;2024-02-28T03:48:36;8.90;99.90
18884;DHT22;9574;47.282;9.640;2024-02-28T03:51:03;8.90;99.90
18884;DHT22;9574;47.282;9.640;2024-02-28T03:53:31;8.90;99.90
18884;DHT22;9574;47.282;9.640;2024-02-28T03:55:58;8.80;99.90
18884;DHT22;9574;47.282;9.640;2024-02-28T03:58:25;8.70;99.90
18884;DHT22;9574;47.282;9.640;2024-02-28T04:00:52;8.60;99.90
18884;DHT22;9574;47.282;9.640;2024-02-28T04:03:19;8.60;99.90
18884;DHT22;9574;47.282;9.640;2024-02-28T04:05:47;8.60;99.90
18884;DHT22;9574;47.282;9.640;2024-02-28T04:08:14;8.40;99.90
18884;DHT22;9574;47.282;9.640;2024-02-28T04:10:41;8.40;99.90
18884;DHT22;9574;47.282;9.640;2024-02-28T04:13:08;8.50;99.90
18884;DHT22;9574;47.282;9.640;2024-02-28T04:15:35;8.60;99.90
18884;DHT22;9574;47.282;9.640;2024-02-28T04:18:03;8.60;99.90
18884;DHT22;9574;47.282;9.640;2024-02-28T04:20:30;8.70;99.90
18884;DHT22;9574;47.282;9.640;2024-02-28T04:22:58;8.70;99.90
18884;DHT22;9574;47.282;9.640;2024-02-28T04:25:25;8.70;99.90
18884;DHT22;9574;47.282;9.640;2024-02-28T04:27:52;8.70;99.90
18884;DHT22;9574;47.282;9.640;2024-02-28T04:30:19;8.70;99.90
18884;DHT22;9574;47.282;9.640;2024-02-28T04:32:46;8.70;99.90
18884;DHT22;9574;47.282;9.640;2024-02-28T04:35:13;8.70;99.90
18884;DHT22;9574;47.282;9.640;2024-02-28T04:37:41;8.70;99.90
18884;DHT22;9574;47.282;9.640;2024-02-28T04:40:11;8.70;99.90
18884;DHT22;9574;47.282;9.640;2024-02-28T04:42:38;8.50;99.90
18884;DHT22;9574;47.282;9.640;2024-02-28T04:45:05;8.30;99.90
18884;DHT22;9574;47.282;9.640;2024-02-28T04:47:33;8.10;99.90
18884;DHT22;9574;47.282;9.640;2024-02-28T04:50:00;7.90;99.90
18884;DHT22;9574;47.282;9.640;2024-02-28T04:52:26;7.80;99.90
18884;DHT22;9574;47.282;9.640;2024-02-28T04:54:54;7.70;99.90
18884;DHT22;9574;47.282;9.640;2024-02-28T04:57:22;7.70;99.90
18884;DHT22;9574;47.282;9.640;2024-02-28T04:59:49;7.70;99.90
18884;DHT22;9574;47.282;9.640;2024-02-28T05:02:16;7.80;99.90
18884;DHT22;9574;47.282;9.640;2024-02-28T05:04:43;7.90;99.90
18884;DHT22;9574;47.282;9.640;2024-02-28T05:07:10;8.00;99.90
18884;DHT22;9574;47.282;9.640;2024-02-28T05:09:37;8.30;99.90
18884;DHT22;9574;47.282;9.640;2024-02-28T05:12:04;8.30;99.90
18884;DHT22;9574;47.282;9.640;2024-02-28T05:14:32;8.50;99.90
18884;DHT22;9574;47.282;9.640;2024-02-28T05:16:59;8.50;99.90
18884;DHT22;9574;47.282;9.640;2024-02-28T05:19:26;8.50;99.90
18884;DHT22;9574;47.282;9.640;2024-02-28T05:21:53;8.60;99.90
18884;DHT22;9574;47.282;9.640;2024-02-28T05:24:20;8.50;99.90
18884;DHT22;9574;47.282;9.640;2024-02-28T05:26:47;8.50;99.90
18884;DHT22;9574;47.282;9.640;2024-02-28T05:29:14;8.60;99.90
18884;DHT22;9574;47.282;9.640;2024-02-28T05:31:42;8.50;99.90
18884;DHT22;9574;47.282;9.640;2024-02-28T05:34:09;8.50;99.90
18884;DHT22;9574;47.282;9.640;2024-02-28T05:36:36;8.50;99.90
18884;DHT22;9574;47.282;9.640;2024-02-28T05:39:04;8.60;99.90
18884;DHT22;9574;47.282;9.640;2024-02-28T05:41:33;8.50;99.90
18884;DHT22;9574;47.282;9.640;2024-02-28T05:44:00;8.60;99.90
18884;DHT22;9574;47.282;9.640;2024-02-28T05:46:27;8.60;99.90
18884;DHT22;9574;47.282;9.640;2024-02-28T05:48:56;8.50;99.90
18884;DHT22;9574;47.282;9.640;2024-02-28T05:51:23;8.50;99.90
18884;DHT22;9574;47.282;9.640;2024-02-28T05:53:50;8.60;99.90
18884;DHT22;9574;47.282;9.640;2024-02-28T05:56:17;8.60;99.90
18884;DHT22;9574;47.282;9.640;2024-02-28T05:58:46;8.60;99.90
18884;DHT22;9574;47.282;9.640;2024-02-28T06:01:15;8.60;99.90
18884;DHT22;9574;47.282;9.640;2024-02-28T06:03:42;8.60;99.90
18884;DHT22;9574;47.282;9.640;2024-02-28T06:06:13;8.60;99.90
18884;DHT22;9574;47.282;9.640;2024-02-28T06:08:40;8.60;99.90
18884;DHT22;9574;47.282;9.640;2024-02-28T06:11:07;8.60;99.90
18884;DHT22;9574;47.282;9.640;2024-02-28T06:13:35;8.60;99.90
18884;DHT22;9574;47.282;9.640;2024-02-28T06:16:03;8.50;99.90
18884;DHT22;9574;47.282;9.640;2024-02-28T06:18:30;8.50;99.90
18884;DHT22;9574;47.282;9.640;2024-02-28T06:20:59;8.50;99.90
18884;DHT22;9574;47.282;9.640;2024-02-28T06:23:27;8.50;99.90
18884;DHT22;9574;47.282;9.640;2024-02-28T06:25:55;8.50;99.90
18884;DHT22;9574;47.282;9.640;2024-02-28T06:28:22;8.50;99.90
18884;DHT22;9574;47.282;9.640;2024-02-28T06:30:49;8.50;99.90
18884;DHT22;9574;47.282;9.640;2024-02-28T06:33:16;8.50;99.90
18884;DHT22;9574;47.282;9.640;2024-02-28T06:35:44;8.50;99.90
18884;DHT22;9574;47.282;9.640;2024-02-28T06:38:11;8.50;99.90
18884;DHT22;9574;47.282;9.640;2024-02-28T06:40:39;8.60;99.90
18884;DHT22;9574;47.282;9.640;2024-02-28T06:43:07;8.60;99.90
18884;DHT22;9574;47.282;9.640;2024-02-28T06:45:33;8.60;99.90
18884;DHT22;9574;47.282;9.640;2024-02-28T06:48:00;8.50;99.90
18884;DHT22;9574;47.282;9.640;2024-02-28T06:50:27;8.50;99.90
18884;DHT22;9574;47.282;9.640;2024-02-28T06:52:54;8.50;99.90
18884;DHT22;9574;47.282;9.640;2024-02-28T06:55:21;8.50;99.90
18884;DHT22;9574;47.282;9.640;2024-02-28T06:57:49;8.50;99.90
18884;DHT22;9574;47.282;9.640;2024-02-28T07:00:17;8.50;99.90
18884;DHT22;9574;47.282;9.640;2024-02-28T07:02:45;8.50;99.90
18884;DHT22;9574;47.282;9.640;2024-02-28T07:05:12;8.30;99.90
18884;DHT22;9574;47.282;9.640;2024-02-28T07:07:39;8.30;99.90
18884;DHT22;9574;47.282;9.640;2024-02-28T07:10:07;8.30;99.90
18884;DHT22;9574;47.282;9.640;2024-02-28T07:12:34;8.30;99.90
18884;DHT22;9574;47.282;9.640;2024-02-28T07:15:03;8.40;99.90
18884;DHT22;9574;47.282;9.640;2024-02-28T07:17:31;8.50;99.90
18884;DHT22;9574;47.282;9.640;2024-02-28T07:19:58;8.50;99.90
18884;DHT22;9574;47.282;9.640;2024-02-28T07:22:25;8.40;99.90
18884;DHT22;9574;47.282;9.640;2024-02-28T07:24:52;8.50;99.90
18884;DHT22;9574;47.282;9.640;2024-02-28T07:27:20;8.50;99.90
18884;DHT22;9574;47.282;9.640;2024-02-28T07:29:48;8.50;99.90
18884;DHT22;9574;47.282;9.640;2024-02-28T07:32:16;8.50;99.90
18884;DHT22;9574;47.282;9.640;2024-02-28T07:34:43;8.50;99.90
18884;DHT22;9574;47.282;9.640;2024-02-28T07:37:10;8.60;99.90
18884;DHT22;9574;47.282;9.640;2024-02-28T07:39:37;8.60;99.90
18884;DHT22;9574;47.282;9.640;2024-02-28T07:42:05;8.60;99.90
18884;DHT22;9574;47.282;9.640;2024-02-28T07:44:32;8.50;99.90
18884;DHT22;9574;47.282;9.640;2024-02-28T07:46:58;8.60;99.90
18884;DHT22;9574;47.282;9.640;2024-02-28T07:49:30;8.50;99.90
18884;DHT22;9574;47.282;9.640;2024-02-28T07:52:11;8.60;99.90
18884;DHT22;9574;47.282;9.640;2024-02-28T07:54:54;8.60;99.90
18884;DHT22;9574;47.282;9.640;2024-02-28T07:57:29;8.60;99.90
18884;DHT22;9574;47.282;9.640;2024-02-28T08:00:06;8.70;99.90
18884;DHT22;9574;47.282;9.640;2024-02-28T08:02:33;8.60;99.90
18884;DHT22;9574;47.282;9.640;2024-02-28T08:05:02;8.30;99.90
18884;DHT22;9574;47.282;9.640;2024-02-28T08:07:29;8.20;99.90
18884;DHT22;9574;47.282;9.640;2024-02-28T08:09:56;8.10;99.90
18884;DHT22;9574;47.282;9.640;2024-02-28T08:12:23;8.00;99.90
18884;DHT22;9574;47.282;9.640;2024-02-28T08:14:50;8.10;99.90
18884;DHT22;9574;47.282;9.640;2024-02-28T08:17:17;8.20;99.90
18884;DHT22;9574;47.282;9.640;2024-02-28T08:19:44;8.30;99.90
18884;DHT22;9574;47.282;9.640;2024-02-28T08:22:12;8.40;99.90
18884;DHT22;9574;47.282;9.640;2024-02-28T08:24:39;8.40;99.90
18884;DHT22;9574;47.282;9.640;2024-02-28T08:27:06;8.30;99.90
18884;DHT22;9574;47.282;9.640;2024-02-28T08:29:33;8.30;99.90
18884;DHT22;9574;47.282;9.640;2024-02-28T08:32:01;8.40;99.90
18884;DHT22;9574;47.282;9.640;2024-02-28T08:34:28;8.50;99.90
18884;DHT22;9574;47.282;9.640;2024-02-28T08:36:55;8.60;99.90
18884;DHT22;9574;47.282;9.640;2024-02-28T08:39:23;8.30;99.90
18884;DHT22;9574;47.282;9.640;2024-02-28T08:41:50;8.20;99.90
18884;DHT22;9574;47.282;9.640;2024-02-28T08:44:17;8.10;99.90
18884;DHT22;9574;47.282;9.640;2024-02-28T08:46:46;8.30;99.90
18884;DHT22;9574;47.282;9.640;2024-02-28T08:49:13;8.30;99.90
18884;DHT22;9574;47.282;9.640;2024-02-28T08:51:40;8.30;99.90
18884;DHT22;9574;47.282;9.640;2024-02-28T08:54:07;8.20;99.90
18884;DHT22;9574;47.282;9.640;2024-02-28T08:56:36;8.00;99.90
18884;DHT22;9574;47.282;9.640;2024-02-28T08:59:02;7.80;99.90
18884;DHT22;9574;47.282;9.640;2024-02-28T09:01:30;7.70;99.90
18884;DHT22;9574;47.282;9.640;2024-02-28T09:03:56;7.70;99.90
18884;DHT22;9574;47.282;9.640;2024-02-28T09:06:24;7.90;99.90
18884;DHT22;9574;47.282;9.640;2024-02-28T09:08:51;8.10;99.90
18884;DHT22;9574;47.282;9.640;2024-02-28T09:11:18;8.00;99.90
18884;DHT22;9574;47.282;9.640;2024-02-28T09:13:46;8.00;99.90
18884;DHT22;9574;47.282;9.640;2024-02-28T09:16:13;8.00;99.90
18884;DHT22;9574;47.282;9.640;2024-02-28T09:18:40;8.10;99.90
18884;DHT22;9574;47.282;9.640;2024-02-28T09:21:08;8.30;99.90
18884;DHT22;9574;47.282;9.640;2024-02-28T09:23:35;8.30;99.90
18884;DHT22;9574;47.282;9.640;2024-02-28T09:26:03;8.30;99.90
18884;DHT22;9574;47.282;9.640;2024-02-28T09:28:30;8.10;99.90
18884;DHT22;9574;47.282;9.640;2024-02-28T09:30:59;8.20;99.90
18884;DHT22;9574;47.282;9.640;2024-02-28T09:33:25;8.30;99.90
18884;DHT22;9574;47.282;9.640;2024-02-28T09:35:52;8.60;99.90
18884;DHT22;9574;47.282;9.640;2024-02-28T09:38:19;8.50;99.90
18884;DHT22;9574;47.282;9.640;2024-02-28T09:40:47;8.60;99.90
18884;DHT22;9574;47.282;9.640;2024-02-28T09:43:18;8.50;99.90
18884;DHT22;9574;47.282;9.640;2024-02-28T09:45:46;8.40;99.90
18884;DHT22;9574;47.282;9.640;2024-02-28T09:48:15;8.50;99.90
18884;DHT22;9574;47.282;9.640;2024-02-28T09:50:43;8.50;99.90
18884;DHT22;9574;47.282;9.640;2024-02-28T09:53:10;8.50;99.90
18884;DHT22;9574;47.282;9.640;2024-02-28T09:55:37;8.40;99.90
18884;DHT22;9574;47.282;9.640;2024-02-28T09:58:08;8.60;99.90
18884;DHT22;9574;47.282;9.640;2024-02-28T10:00:35;8.90;99.90
18884;DHT22;9574;47.282;9.640;2024-02-28T10:03:04;9.00;99.90
18884;DHT22;9574;47.282;9.640;2024-02-28T10:05:34;8.90;99.90
18884;DHT22;9574;47.282;9.640;2024-02-28T10:08:01;8.80;99.90
18884;DHT22;9574;47.282;9.640;2024-02-28T10:10:28;8.80;99.90
18884;DHT22;9574;47.282;9.640;2024-02-28T10:12:56;9.00;99.90
18884;DHT22;9574;47.282;9.640;2024-02-28T10:15:26;9.20;99.90
18884;DHT22;9574;47.282;9.640;2024-02-28T10:17:53;9.30;99.90
18884;DHT22;9574;47.282;9.640;2024-02-28T10:20:20;9.40;99.90
18884;DHT22;9574;47.282;9.640;2024-02-28T10:22:48;9.40;99.90
18884;DHT22;9574;47.282;9.640;2024-02-28T10:25:19;9.30;99.90
18884;DHT22;9574;47.282;9.640;2024-02-28T10:27:47;9.20;99.90
18884;DHT22;9574;47.282;9.640;2024-02-28T10:30:14;9.40;99.90
18884;DHT22;9574;47.282;9.640;2024-02-28T10:32:48;9.40;99.90
18884;DHT22;9574;47.282;9.640;2024-02-28T10:35:17;9.40;99.90
18884;DHT22;9574;47.282;9.640;2024-02-28T10:37:45;9.40;99.90
18884;DHT22;9574;47.282;9.640;2024-02-28T10:40:15;9.50;99.90
18884;DHT22;9574;47.282;9.640;2024-02-28T10:42:43;9.50;99.90
18884;DHT22;9574;47.282;9.640;2024-02-28T10:45:10;9.40;99.90
18884;DHT22;9574;47.282;9.640;2024-02-28T10:47:38;9.50;99.90
18884;DHT22;9574;47.282;9.640;2024-02-28T10:50:06;9.60;99.90
18884;DHT22;9574;47.282;9.640;2024-02-28T10:52:34;9.60;99.90
18884;DHT22;9574;47.282;9.640;2024-02-28T10:55:08;9.60;99.90
18884;DHT22;9574;47.282;9.640;2024-02-28T10:57:38;9.60;99.90
18884;DHT22;9574;47.282;9.640;2024-02-28T11:00:07;9.60;99.90
18884;DHT22;9574;47.282;9.640;2024-02-28T11:02:34;9.60;99.90
18884;DHT22;9574;47.282;9.640;2024-02-28T11:05:03;9.60;99.90
18884;DHT22;9574;47.282;9.640;2024-02-28T11:07:31;9.50;99.90
18884;DHT22;9574;47.282;9.640;2024-02-28T11:09:58;9.60;99.90
18884;DHT22;9574;47.282;9.640;2024-02-28T11:12:25;9.60;99.90
18884;DHT22;9574;47.282;9.640;2024-02-28T11:14:59;9.60;99.90
18884;DHT22;9574;47.282;9.640;2024-02-28T11:17:27;9.50;99.90
18884;DHT22;9574;47.282;9.640;2024-02-28T11:19:54;9.60;99.90
18884;DHT22;9574;47.282;9.640;2024-02-28T11:22:21;9.70;99.90
18884;DHT22;9574;47.282;9.640;2024-02-28T11:24:49;9.80;99.90
18884;DHT22;9574;47.282;9.640;2024-02-28T11:27:16;9.70;99.90
18884;DHT22;9574;47.282;9.640;2024-02-28T11:29:43;9.70;99.90
18884;DHT22;9574;47.282;9.640;2024-02-28T11:32:14;9.70;99.90
18884;DHT22;9574;47.282;9.640;2024-02-28T11:34:41;9.90;99.90
18884;DHT22;9574;47.282;9.640;2024-02-28T11:37:10;9.90;99.90
18884;DHT22;9574;47.282;9.640;2024-02-28T11:39:37;10.00;99.90
18884;DHT22;9574;47.282;9.640;2024-02-28T11:42:11;10.00;99.90
18884;DHT22;9574;47.282;9.640;2024-02-28T11:44:39;10.00;99.90
18884;DHT22;9574;47.282;9.640;2024-02-28T11:47:08;10.10;99.90
18884;DHT22;9574;47.282;9.640;2024-02-28T11:49:37;10.20;99.90
18884;DHT22;9574;47.282;9.640;2024-02-28T11:52:04;10.30;99.90
18884;DHT22;9574;47.282;9.640;2024-02-28T11:54:32;10.20;99.90
18884;DHT22;9574;47.282;9.640;2024-02-28T11:56:58;10.20;99.90
18884;DHT22;9574;47.282;9.640;2024-02-28T11:59:26;10.20;99.90
18884;DHT22;9574;47.282;9.640;2024-02-28T12:01:53;10.10;99.90
18884;DHT22;9574;47.282;9.640;2024-02-28T12:04:24;10.30;99.90
18884;DHT22;9574;47.282;9.640;2024-02-28T12:06:53;10.50;99.90
18884;DHT22;9574;47.282;9.640;2024-02-28T12:09:20;10.40;99.90
18884;DHT22;9574;47.282;9.640;2024-02-28T12:11:47;10.30;99.90
18884;DHT22;9574;47.282;9.640;2024-02-28T12:14:13;10.50;99.90
18884;DHT22;9574;47.282;9.640;2024-02-28T12:16:40;10.50;99.90
18884;DHT22;9574;47.282;9.640;2024-02-28T12:19:10;10.50;99.90
18884;DHT22;9574;47.282;9.640;2024-02-28T12:21:38;10.60;99.90
18884;DHT22;9574;47.282;9.640;2024-02-28T12:24:08;10.60;99.90
18884;DHT22;9574;47.282;9.640;2024-02-28T12:26:35;10.70;99.90
18884;DHT22;9574;47.282;9.640;2024-02-28T12:29:02;10.60;99.90
18884;DHT22;9574;47.282;9.640;2024-02-28T12:31:29;10.50;99.90
18884;DHT22;9574;47.282;9.640;2024-02-28T12:33:56;10.60;99.90
18884;DHT22;9574;47.282;9.640;2024-02-28T12:36:24;10.70;99.90
18884;DHT22;9574;47.282;9.640;2024-02-28T12:38:52;10.70;99.90
18884;DHT22;9574;47.282;9.640;2024-02-28T12:41:20;10.80;99.90
18884;DHT22;9574;47.282;9.640;2024-02-28T12:43:47;10.80;99.90
18884;DHT22;9574;47.282;9.640;2024-02-28T12:46:14;10.80;99.90
18884;DHT22;9574;47.282;9.640;2024-02-28T12:48:41;10.80;99.90
18884;DHT22;9574;47.282;9.640;2024-02-28T12:51:11;10.90;99.90
18884;DHT22;9574;47.282;9.640;2024-02-28T12:53:38;10.80;99.90
18884;DHT22;9574;47.282;9.640;2024-02-28T12:56:05;10.70;99.90
18884;DHT22;9574;47.282;9.640;2024-02-28T12:58:33;10.70;99.90
18884;DHT22;9574;47.282;9.640;2024-02-28T13:01:00;10.60;99.90
18884;DHT22;9574;47.282;9.640;2024-02-28T13:03:27;10.60;99.90
18884;DHT22;9574;47.282;9.640;2024-02-28T13:05:55;10.50;99.90
18884;DHT22;9574;47.282;9.640;2024-02-28T13:08:22;10.60;99.90
18884;DHT22;9574;47.282;9.640;2024-02-28T13:10:49;10.70;99.90
18884;DHT22;9574;47.282;9.640;2024-02-28T13:13:16;10.70;99.90
18884;DHT22;9574;47.282;9.640;2024-02-28T13:15:44;10.70;99.90
18884;DHT22;9574;47.282;9.640;2024-02-28T13:18:11;10.80;99.90
18884;DHT22;9574;47.282;9.640;2024-02-28T13:20:38;10.70;99.90
18884;DHT22;9574;47.282;9.640;2024-02-28T13:23:06;10.60;99.90
18884;DHT22;9574;47.282;9.640;2024-02-28T13:25:33;10.50;99.90
18884;DHT22;9574;47.282;9.640;2024-02-28T13:28:00;10.40;99.90
18884;DHT22;9574;47.282;9.640;2024-02-28T13:30:26;10.40;99.90
18884;DHT22;9574;47.282;9.640;2024-02-28T13:32:55;10.40;99.90
18884;DHT22;9574;47.282;9.640;2024-02-28T13:35:22;10.40;99.90
18884;DHT22;9574;47.282;9.640;2024-02-28T13:38:01;10.40;99.90
18884;DHT22;9574;47.282;9.640;2024-02-28T13:40:31;10.30;99.90
18884;DHT22;9574;47.282;9.640;2024-02-28T13:42:57;10.20;99.90
18884;DHT22;9574;47.282;9.640;2024-02-28T13:45:24;10.10;99.90
18884;DHT22;9574;47.282;9.640;2024-02-28T13:47:51;10.10;99.90
18884;DHT22;9574;47.282;9.640;2024-02-28T13:50:20;10.10;99.90
18884;DHT22;9574;47.282;9.640;2024-02-28T13:52:46;10.10;99.90
18884;DHT22;9574;47.282;9.640;2024-02-28T13:55:13;10.00;99.90
18884;DHT22;9574;47.282;9.640;2024-02-28T13:57:40;10.00;99.90
18884;DHT22;9574;47.282;9.640;2024-02-28T14:00:08;9.80;99.90
18884;DHT22;9574;47.282;9.640;2024-02-28T14:02:36;9.60;99.90
18884;DHT22;9574;47.282;9.640;2024-02-28T14:05:04;9.50;99.90
18884;DHT22;9574;47.282;9.640;2024-02-28T14:07:34;9.40;99.90
18884;DHT22;9574;47.282;9.640;2024-02-28T14:10:03;9.40;99.90
18884;DHT22;9574;47.282;9.640;2024-02-28T14:12:30;9.40;99.90
18884;DHT22;9574;47.282;9.640;2024-02-28T14:14:57;9.30;99.90
18884;DHT22;9574;47.282;9.640;2024-02-28T14:17:24;9.40;99.90
18884;DHT22;9574;47.282;9.640;2024-02-28T14:19:51;9.30;99.90
18884;DHT22;9574;47.282;9.640;2024-02-28T14:22:18;9.30;99.90
18884;DHT22;9574;47.282;9.640;2024-02-28T14:24:46;9.30;99.90
18884;DHT22;9574;47.282;9.640;2024-02-28T14:27:13;9.30;99.90
18884;DHT22;9574;47.282;9.640;2024-02-28T14:29:40;9.30;99.90
18884;DHT22;9574;47.282;9.640;2024-02-28T14:32:07;9.30;99.90
18884;DHT22;9574;47.282;9.640;2024-02-28T14:34:34;9.20;99.90
18884;DHT22;9574;47.282;9.640;2024-02-28T14:37:01;9.20;99.90
18884;DHT22;9574;47.282;9.640;2024-02-28T14:39:29;9.20;99.90
18884;DHT22;9574;47.282;9.640;2024-02-28T14:41:58;9.10;99.90
18884;DHT22;9574;47.282;9.640;2024-02-28T14:44:25;9.10;99.90
18884;DHT22;9574;47.282;9.640;2024-02-28T14:46:52;9.20;99.90
18884;DHT22;9574;47.282;9.640;2024-02-28T14:49:19;9.20;99.90
18884;DHT22;9574;47.282;9.640;2024-02-28T14:51:46;9.20;99.90
18884;DHT22;9574;47.282;9.640;2024-02-28T14:54:14;9.10;99.90
18884;DHT22;9574;47.282;9.640;2024-02-28T14:56:45;9.20;99.90
18884;DHT22;9574;47.282;9.640;2024-02-28T14:59:18;9.20;99.90
18884;DHT22;9574;47.282;9.640;2024-02-28T15:01:45;9.00;99.90
18884;DHT22;9574;47.282;9.640;2024-02-28T15:04:12;9.00;99.90
18884;DHT22;9574;47.282;9.640;2024-02-28T15:06:39;9.00;99.90
18884;DHT22;9574;47.282;9.640;2024-02-28T15:09:07;9.00;99.90
18884;DHT22;9574;47.282;9.640;2024-02-28T15:11:34;9.10;99.90
18884;DHT22;9574;47.282;9.640;2024-02-28T15:14:01;9.00;99.90
18884;DHT22;9574;47.282;9.640;2024-02-28T15:16:29;9.00;99.90
18884;DHT22;9574;47.282;9.640;2024-02-28T15:18:56;9.00;99.90
18884;DHT22;9574;47.282;9.640;2024-02-28T15:21:23;9.00;99.90
18884;DHT22;9574;47.282;9.640;2024-02-28T15:23:51;9.00;99.90
18884;DHT22;9574;47.282;9.640;2024-02-28T15:26:17;9.00;99.90
18884;DHT22;9574;47.282;9.640;2024-02-28T15:28:44;8.90;99.90
18884;DHT22;9574;47.282;9.640;2024-02-28T15:31:11;8.90;99.90
18884;DHT22;9574;47.282;9.640;2024-02-28T15:33:40;8.80;99.90
18884;DHT22;9574;47.282;9.640;2024-02-28T15:36:07;8.80;99.90
18884;DHT22;9574;47.282;9.640;2024-02-28T15:38:35;8.80;99.90
18884;DHT22;9574;47.282;9.640;2024-02-28T15:41:02;8.80;99.90
18884;DHT22;9574;47.282;9.640;2024-02-28T15:43:30;8.80;99.90
18884;DHT22;9574;47.282;9.640;2024-02-28T15:45:57;8.80;99.90
18884;DHT22;9574;47.282;9.640;2024-02-28T15:48:24;8.80;99.90
18884;DHT22;9574;47.282;9.640;2024-02-28T15:50:55;8.80;99.90
18884;DHT22;9574;47.282;9.640;2024-02-28T15:53:22;8.80;99.90
18884;DHT22;9574;47.282;9.640;2024-02-28T15:55:49;8.80;99.90
18884;DHT22;9574;47.282;9.640;2024-02-28T15:58:16;8.70;99.90
18884;DHT22;9574;47.282;9.640;2024-02-28T16:00:43;8.70;99.90